DW9073 Weather Reports


Display with metric or nautical units.
time (UTC)temp
F
wind
direction
speed
MPH
gust
MPH
rain 1hr
in
rain 24hr
in
rain mn
in
humidity
%
barometer
mb
20210925023054 74 70 0.0 2.0 0.00 0.00 0.00 69 1017.2
20210925021523 74 70 0.0 1.0 0.00 0.00 0.00 67 1017.2
20210925020030 74 71 0.0 1.0 0.00 0.00 0.00 66 1017.1
20210925014536 74 71 0.0 1.0 0.00 0.00 0.00 67 1016.9
20210925013029 75 70 0.0 3.0 0.00 0.00 0.00 64 1017.0
20210925011532 75 70 0.0 3.0 0.00 0.00 0.00 63 1016.8
20210925010025 75 54 0.0 3.0 0.00 0.00 0.00 62 1016.7
20210925004613 76 53 0.0 3.0 0.00 0.00 0.00 62 1016.6
20210925003021 76 55 0.0 3.0 0.00 0.00 0.00 61 1016.7
20210925001542 77 57 0.0 4.0 0.00 0.00 0.00 59 1016.7
20210925000027 77 56 0.0 6.0 0.00 0.00 0.00 57 1016.7
20210924234516 78 54 1.0 4.0 0.00 0.00 0.00 56 1016.8
20210924233033 78 53 1.0 5.0 0.00 0.00 0.00 56 1016.7
20210924231532 79 45 1.0 4.0 0.00 0.00 0.00 56 1016.7
20210924230038 79 54 2.0 8.0 0.00 0.00 0.00 53 1016.7
20210924224524 80 64 0.0 5.0 0.00 0.00 0.00 52 1016.6
20210924223023 80 50 0.0 6.0 0.00 0.00 0.00 49 1016.7
20210924221516 80 44 0.0 6.0 0.00 0.00 0.00 52 1016.7
20210924220019 80 64 0.0 10.0 0.00 0.00 0.00 51 1016.7
20210924214513 81 57 2.0 9.0 0.00 0.00 0.00 49 1016.8
20210924213015 81 59 1.0 9.0 0.00 0.00 0.00 50 1016.7
20210924211513 81 46 0.0 5.0 0.00 0.00 0.00 51 1016.8
20210924210009 81 47 1.0 5.0 0.00 0.00 0.00 51 1016.8
20210924204512 81 41 4.0 12.0 0.00 0.00 0.00 51 1017.0
20210924203009 81 37 0.0 5.0 0.00 0.00 0.00 54 1017.0
20210924201521 81 57 0.0 5.0 0.00 0.00 0.00 53 1017.1
20210924200007 81 85 2.0 8.0 0.00 0.00 0.00 50 1017.2
20210924194506 81 100 1.0 9.0 0.00 0.00 0.00 47 1017.4
20210924193007 82 54 1.0 5.0 0.00 0.00 0.00 46 1017.6
20210924191516 81 60 1.0 9.0 0.00 0.00 0.00 47 1017.8
20210924190006 81 53 1.0 7.0 0.00 0.00 0.00 46 1018.1
20210924184519 82 47 2.0 9.0 0.00 0.00 0.00 45 1018.3
20210924183006 81 51 0.0 5.0 0.00 0.00 0.00 47 1018.4
20210924181504 81 56 1.0 9.0 0.00 0.00 0.00 51 1018.6
20210924180134 81 62 1.0 11.0 0.00 0.00 0.00 46 1018.9
20210924174629 80 51 2.0 9.0 0.00 0.00 0.00 47 1019.0
20210924173128 80 34 2.0 12.0 0.00 0.00 0.00 47 1019.2
20210924171558 80 16 3.0 11.0 0.00 0.00 0.00 48 1019.2
20210924170122 80 49 2.0 13.0 0.00 0.00 0.00 50 1019.4
20210924164624 79 54 4.0 13.0 0.00 0.00 0.00 52 1019.5
20210924163148 80 45 5.0 13.0 0.00 0.00 0.00 52 1019.6
20210924161650 80 97 2.0 12.0 0.00 0.00 0.00 56 1019.4
20210924160128 79 78 3.0 13.0 0.00 0.00 0.00 56 1019.4
20210924154700 79 91 4.0 15.0 0.00 0.00 0.00 55 1019.4
20210924153108 79 50 5.0 12.0 0.00 0.00 0.00 55 1019.4
20210924151601 78 42 6.0 14.0 0.00 0.00 0.00 57 1019.3
20210924150059 78 71 1.0 11.0 0.00 0.00 0.00 61 1019.0
20210924144627 79 29 1.0 10.0 0.00 0.00 0.00 63 1018.8
20210924143112 78 53 1.0 7.0 0.00 0.00 0.00 68 1018.8
20210924141709 77 63 0.0 4.0 0.00 0.00 0.00 75 1018.7
20210924140051 75 66 0.0 3.0 0.00 0.00 0.00 80 1018.8
20210924134544 72 67 0.0 3.0 0.00 0.00 0.00 85 1018.8
20210924133050 69 67 0.0 1.0 0.00 0.00 0.00 88 1018.7
20210924131527 68 67 0.0 0.0 0.00 0.00 0.00 88 1018.6
20210924130037 66 67 0.0 0.0 0.00 0.00 0.00 89 1018.6
20210924124534 65 67 0.0 0.0 0.00 0.00 0.00 88 1018.6
20210924123052 65 67 0.0 1.0 0.00 0.00 0.00 89 1018.3
20210924121521 65 67 0.0 0.0 0.00 0.00 0.00 88 1018.2
20210924120016 65 67 0.0 0.0 0.00 0.00 0.00 87 1018.1
20210924114539 65 67 0.0 0.0 0.00 0.00 0.00 87 1017.9
20210924113046 65 67 0.0 0.0 0.00 0.00 0.00 85 1017.9
20210924111513 65 67 0.0 0.0 0.00 0.00 0.00 86 1017.7
20210924110008 65 67 0.0 0.0 0.00 0.00 0.00 84 1017.6
20210924104507 65 67 0.0 0.0 0.00 0.00 0.00 86 1017.6
20210924103006 65 67 0.0 0.0 0.00 0.00 0.00 85 1017.5
20210924101506 65 67 0.0 0.0 0.00 0.00 0.00 84 1017.4
20210924100002 65 67 0.0 0.0 0.00 0.00 0.00 85 1017.3
20210924094712 65 67 0.0 1.0 0.00 0.00 0.00 85 1017.3
20210924093159 65 67 0.0 0.0 0.00 0.00 0.00 83 1017.3
20210924083147 68 67 0.0 0.0 0.00 0.00 0.00 77 1017.2
20210924081639 68 67 0.0 0.0 0.00 0.00 0.00 77 1017.2
20210924080118 68 67 0.0 0.0 0.00 0.00 0.00 77 1017.2
20210924074651 68 67 0.0 0.0 0.00 0.00 0.00 77 1017.1
20210924073118 69 67 0.0 0.0 0.00 0.00 0.00 76 1017.1
20210924071548 69 67 0.0 0.0 0.00 0.00 0.00 75 1017.1
20210924064559 69 67 0.0 0.0 0.00 0.00 0.00 75 1017.1
20210924063120 69 67 0.0 0.0 0.00 0.00 0.00 77 1016.9
20210924061544 70 67 0.0 0.0 0.00 0.00 0.00 76 1017.0
20210924060040 70 67 0.0 0.0 0.00 0.00 0.00 75 1016.9
20210924054539 71 67 0.0 0.0 0.00 0.00 0.00 73 1017.0
20210924053044 71 67 0.0 0.0 0.00 0.00 0.00 74 1017.0
20210924051612 72 67 0.0 1.0 0.00 0.00 0.00 71 1017.0
20210924050029 72 67 0.0 1.0 0.00 0.00 0.00 71 1017.2
20210924044546 72 67 0.0 1.0 0.00 0.00 0.00 72 1017.2
20210924043046 72 67 0.0 1.0 0.00 0.00 0.00 71 1017.2
20210924041553 72 67 0.0 3.0 0.00 0.00 0.00 71 1017.2
20210924040035 72 67 0.0 1.0 0.00 0.00 0.00 71 1017.1
20210924034610 72 67 0.0 2.0 0.00 0.00 0.00 71 1017.2
20210924033040 72 67 0.0 1.0 0.00 0.00 0.00 70 1017.3
20210924031602 72 67 0.0 2.0 0.00 0.00 0.00 72 1017.3
20210924030111 73 67 0.0 3.0 0.00 0.00 0.00 70 1017.1
20210924024555 73 67 0.0 3.0 0.00 0.00 0.00 70 1017.2